createdAt,value
2023-05-05T00:00:27.256Z,8.33
2023-05-05T00:01:27.264Z,8.29
2023-05-05T00:02:27.460Z,8.26
2023-05-05T00:03:28.070Z,8.27
2023-05-05T00:04:27.348Z,8.25
2023-05-05T00:05:27.340Z,8.23
2023-05-05T00:06:27.391Z,8.21
2023-05-05T00:07:27.562Z,8.22
2023-05-05T00:08:27.559Z,8.23
2023-05-05T00:09:27.611Z,8.19
2023-05-05T00:10:28.597Z,8.11
2023-05-05T00:11:27.755Z,8.09
2023-05-05T00:12:27.803Z,8.09
2023-05-05T00:13:27.854Z,8.10
2023-05-05T00:14:27.919Z,8.06
2023-05-05T00:15:28.020Z,8.07
2023-05-05T00:16:28.126Z,7.98
2023-05-05T00:17:28.155Z,7.92
2023-05-05T00:18:30.042Z,7.91
2023-05-05T00:19:28.271Z,7.96
2023-05-05T00:20:28.385Z,7.94
2023-05-05T00:21:28.482Z,7.94
2023-05-05T00:22:28.531Z,7.97
2023-05-05T00:23:29.571Z,7.90
2023-05-05T00:24:28.618Z,7.87
2023-05-05T00:25:28.694Z,7.87
2023-05-05T00:26:29.494Z,7.85
2023-05-05T00:27:28.824Z,7.88
2023-05-05T00:28:28.796Z,7.90
2023-05-05T00:29:29.539Z,7.91
2023-05-05T00:30:28.956Z,7.94
2023-05-05T00:31:29.685Z,7.93
2023-05-05T00:32:28.942Z,7.93
2023-05-05T00:33:28.906Z,7.93
2023-05-05T00:34:28.968Z,7.94
2023-05-05T00:35:28.923Z,7.92
2023-05-05T00:36:28.945Z,7.92
2023-05-05T00:37:28.958Z,7.93
2023-05-05T00:38:29.042Z,7.95
2023-05-05T00:39:29.003Z,7.93
2023-05-05T00:40:29.023Z,7.91
2023-05-05T00:41:30.146Z,7.94
2023-05-05T00:42:29.099Z,7.90
2023-05-05T00:43:29.074Z,7.91
2023-05-05T00:44:29.109Z,7.89
2023-05-05T00:45:29.204Z,7.89
2023-05-05T00:46:29.250Z,7.89
2023-05-05T00:47:29.347Z,7.87
2023-05-05T00:48:29.220Z,7.84
2023-05-05T00:49:29.319Z,7.84
2023-05-05T00:50:29.356Z,7.83
2023-05-05T00:51:30.363Z,7.84
2023-05-05T00:52:29.263Z,7.82
2023-05-05T00:53:30.086Z,7.78
2023-05-05T00:54:30.130Z,7.79
2023-05-05T00:55:30.110Z,7.75
2023-05-05T00:56:29.479Z,7.73
2023-05-05T00:57:29.540Z,7.72
2023-05-05T00:58:30.515Z,7.73
2023-05-05T00:59:29.674Z,7.75
2023-05-05T01:00:29.608Z,7.72
2023-05-05T01:01:30.537Z,7.70
2023-05-05T01:02:30.119Z,7.68
2023-05-05T01:03:29.895Z,7.68
2023-05-05T01:04:36.515Z,7.67
2023-05-05T01:05:29.855Z,7.72
2023-05-05T01:06:29.893Z,7.72
2023-05-05T01:07:29.892Z,7.72
2023-05-05T01:08:31.636Z,7.74
2023-05-05T01:09:29.896Z,7.77
2023-05-05T01:10:29.942Z,7.77
2023-05-05T01:11:29.915Z,7.77
2023-05-05T01:12:30.531Z,7.76
2023-05-05T01:13:31.555Z,7.78
2023-05-05T01:14:29.995Z,7.77
2023-05-05T01:15:29.999Z,7.75
2023-05-05T01:16:30.110Z,7.73
2023-05-05T01:17:30.085Z,7.75
2023-05-05T01:18:30.093Z,7.80
2023-05-05T01:19:30.086Z,7.72
2023-05-05T01:20:30.126Z,7.71
2023-05-05T01:21:31.044Z,7.71
2023-05-05T01:22:30.484Z,7.70
2023-05-05T01:23:30.232Z,7.70
2023-05-05T01:24:30.196Z,7.67
2023-05-05T01:25:30.354Z,7.70
2023-05-05T01:26:30.439Z,7.67
2023-05-05T01:27:30.318Z,7.65
2023-05-05T01:28:30.451Z,7.65
2023-05-05T01:29:35.126Z,7.67
2023-05-05T01:30:30.433Z,7.69
2023-05-05T01:31:30.579Z,7.74
2023-05-05T01:32:30.916Z,7.73
2023-05-05T01:33:31.054Z,7.69
2023-05-05T01:34:30.600Z,7.70
2023-05-05T01:35:31.605Z,7.70
2023-05-05T01:36:30.527Z,7.70
2023-05-05T01:37:30.663Z,7.69
2023-05-05T01:38:31.567Z,7.67
2023-05-05T01:39:30.627Z,7.71
2023-05-05T01:40:31.617Z,7.73
2023-05-05T01:41:30.684Z,7.76
2023-05-05T01:42:30.819Z,7.73
2023-05-05T01:43:30.699Z,7.76
2023-05-05T01:44:31.578Z,7.74
2023-05-05T01:45:30.814Z,7.76
2023-05-05T01:46:30.700Z,7.74
2023-05-05T01:47:30.809Z,7.73
2023-05-05T01:48:31.523Z,7.69
2023-05-05T01:49:32.520Z,7.68
2023-05-05T01:50:31.501Z,7.68
2023-05-05T01:51:31.052Z,7.66
2023-05-05T01:52:31.117Z,7.64
2023-05-05T01:53:31.341Z,7.64
2023-05-05T01:54:31.171Z,7.65
2023-05-05T01:55:31.387Z,7.65
2023-05-05T01:56:31.174Z,7.64
2023-05-05T01:57:31.352Z,7.64
2023-05-05T01:58:31.400Z,7.61
2023-05-05T01:59:31.501Z,7.61
2023-05-05T02:00:33.030Z,7.60
2023-05-05T02:01:31.595Z,7.59
2023-05-05T02:02:31.614Z,7.57
2023-05-05T02:03:31.510Z,7.60
2023-05-05T02:04:31.583Z,7.59
2023-05-05T02:05:31.527Z,7.57
2023-05-05T02:06:31.781Z,7.58
2023-05-05T02:07:31.574Z,7.58
2023-05-05T02:08:31.599Z,7.50
2023-05-05T02:09:31.664Z,7.45
2023-05-05T02:10:31.676Z,7.45
2023-05-05T02:11:32.523Z,7.48
2023-05-05T02:12:31.888Z,7.52
2023-05-05T02:13:31.826Z,7.46
2023-05-05T02:14:31.908Z,7.50
2023-05-05T02:15:31.969Z,7.51
2023-05-05T02:16:33.015Z,7.43
2023-05-05T02:17:32.163Z,7.38
2023-05-05T02:18:32.139Z,7.36
2023-05-05T02:19:32.301Z,7.39
2023-05-05T02:20:33.096Z,7.42
2023-05-05T02:21:33.017Z,7.44
2023-05-05T02:22:32.421Z,7.47
2023-05-05T02:23:34.457Z,7.51
2023-05-05T02:24:33.532Z,7.53
2023-05-05T02:25:32.586Z,7.56
2023-05-05T02:26:32.709Z,7.57
2023-05-05T02:27:33.070Z,7.59
2023-05-05T02:28:33.531Z,7.57
2023-05-05T02:29:32.856Z,7.58
2023-05-05T02:30:33.600Z,7.63
2023-05-05T02:31:33.012Z,7.65
2023-05-05T02:32:33.040Z,7.67
2023-05-05T02:33:33.278Z,7.69
2023-05-05T02:34:33.103Z,7.69
2023-05-05T02:35:33.194Z,7.72
2023-05-05T02:36:33.256Z,7.74
2023-05-05T02:37:33.192Z,7.76
2023-05-05T02:38:33.228Z,7.78
2023-05-05T02:39:33.283Z,7.75
2023-05-05T02:40:33.308Z,7.76
2023-05-05T02:41:33.432Z,7.74
2023-05-05T02:42:33.611Z,7.73
2023-05-05T02:43:33.523Z,7.76
2023-05-05T02:44:33.521Z,7.77
2023-05-05T02:45:35.522Z,7.71
2023-05-05T02:46:33.650Z,7.67
2023-05-05T02:47:33.645Z,7.70
2023-05-05T02:48:34.039Z,7.69
2023-05-05T02:49:40.745Z,7.71
2023-05-05T02:50:33.618Z,7.75
2023-05-05T02:51:33.782Z,7.72
2023-05-05T02:52:33.676Z,7.76
2023-05-05T02:53:33.686Z,7.83
2023-05-05T02:54:33.769Z,7.88
2023-05-05T02:55:33.781Z,7.93
2023-05-05T02:56:33.806Z,7.90
2023-05-05T02:57:33.825Z,7.89
2023-05-05T02:58:33.857Z,7.87
2023-05-05T02:59:33.830Z,7.85
2023-05-05T03:00:33.892Z,7.84
2023-05-05T03:01:33.956Z,7.86
2023-05-05T03:02:34.016Z,7.86
2023-05-05T03:03:34.093Z,7.86
2023-05-05T03:04:34.017Z,7.89
2023-05-05T03:05:34.109Z,7.87
2023-05-05T03:06:34.114Z,7.84
2023-05-05T03:07:34.116Z,7.86
2023-05-05T03:08:35.012Z,7.89
2023-05-05T03:09:34.255Z,7.89
2023-05-05T03:10:34.215Z,7.87
2023-05-05T03:11:34.228Z,7.85
2023-05-05T03:12:34.312Z,7.85
2023-05-05T03:13:34.565Z,7.85
2023-05-05T03:14:34.342Z,7.79
2023-05-05T03:15:34.364Z,7.81
2023-05-05T03:16:34.478Z,7.80
2023-05-05T03:17:34.441Z,7.76
2023-05-05T03:18:34.513Z,7.78
2023-05-05T03:19:35.024Z,7.77
2023-05-05T03:20:34.573Z,7.73
2023-05-05T03:21:34.622Z,7.69
2023-05-05T03:22:34.776Z,7.67
2023-05-05T03:23:34.865Z,7.66
2023-05-05T03:24:34.938Z,7.70
2023-05-05T03:25:34.930Z,7.74
2023-05-05T03:26:36.536Z,7.75
2023-05-05T03:27:35.036Z,7.74
2023-05-05T03:28:35.076Z,7.73
2023-05-05T03:29:35.206Z,7.70
2023-05-05T03:30:36.136Z,7.70
2023-05-05T03:31:37.082Z,7.69
2023-05-05T03:32:36.046Z,7.66
2023-05-05T03:33:35.389Z,7.66
2023-05-05T03:34:36.685Z,7.65
2023-05-05T03:35:35.593Z,7.67
2023-05-05T03:36:35.664Z,7.61
2023-05-05T03:37:35.736Z,7.60
2023-05-05T03:38:35.838Z,7.59
2023-05-05T03:39:35.920Z,7.61
2023-05-05T03:40:43.692Z,7.56
2023-05-05T03:41:37.021Z,7.55
2023-05-05T03:42:37.207Z,7.55
2023-05-05T03:43:36.078Z,7.58
2023-05-05T03:44:36.117Z,7.56
2023-05-05T03:45:36.206Z,7.55
2023-05-05T03:46:36.241Z,7.52
2023-05-05T03:47:36.351Z,7.53
2023-05-05T03:48:36.299Z,7.52
2023-05-05T03:49:36.345Z,7.54
2023-05-05T03:50:36.402Z,7.54
2023-05-05T03:51:37.186Z,7.56
2023-05-05T03:52:36.547Z,7.56
2023-05-05T03:53:36.514Z,7.58
2023-05-05T03:54:36.549Z,7.59
2023-05-05T03:55:37.635Z,7.60
2023-05-05T03:56:36.637Z,7.58
2023-05-05T03:57:36.721Z,7.57
2023-05-05T03:58:36.785Z,7.60
2023-05-05T03:59:36.817Z,7.65
2023-05-05T04:00:36.883Z,7.69
2023-05-05T04:01:36.935Z,7.70
2023-05-05T04:02:37.008Z,7.71
2023-05-05T04:03:37.058Z,7.74
2023-05-05T04:04:37.099Z,7.81
2023-05-05T04:05:37.014Z,7.83
2023-05-05T04:06:37.009Z,7.85
2023-05-05T04:07:37.039Z,7.84
2023-05-05T04:08:37.159Z,7.87
2023-05-05T04:09:37.114Z,7.92
2023-05-05T04:10:37.128Z,7.88
2023-05-05T04:11:37.276Z,7.92
2023-05-05T04:12:37.251Z,7.94
2023-05-05T04:13:37.233Z,7.98
2023-05-05T04:14:37.258Z,7.98
2023-05-05T04:15:37.349Z,7.98
2023-05-05T04:16:37.518Z,7.95
2023-05-05T04:17:37.507Z,7.99
2023-05-05T04:18:37.545Z,8.04
2023-05-05T04:19:38.535Z,8.06
2023-05-05T04:20:37.682Z,8.11
2023-05-05T04:21:37.699Z,8.15
2023-05-05T04:22:37.730Z,8.10
2023-05-05T04:23:37.799Z,8.11
2023-05-05T04:24:37.830Z,8.13
2023-05-05T04:25:37.870Z,8.19
2023-05-05T04:26:37.904Z,8.25
2023-05-05T04:27:38.084Z,8.29
2023-05-05T04:28:38.030Z,8.34
2023-05-05T04:29:38.103Z,8.34
2023-05-05T04:30:38.214Z,8.34
2023-05-05T04:31:38.370Z,8.40
2023-05-05T04:32:38.385Z,8.37
2023-05-05T04:33:38.369Z,8.45
2023-05-05T04:34:38.391Z,8.54
2023-05-05T04:35:38.396Z,8.66
2023-05-05T04:36:38.492Z,8.73
2023-05-05T04:37:38.502Z,8.82
2023-05-05T04:38:38.559Z,8.85
2023-05-05T04:39:38.614Z,8.93
2023-05-05T04:40:38.685Z,9.00
2023-05-05T04:41:38.811Z,9.08
2023-05-05T04:42:38.823Z,9.17
2023-05-05T04:43:38.876Z,9.29
2023-05-05T04:44:38.929Z,9.42
2023-05-05T04:45:38.889Z,9.46
2023-05-05T04:46:38.968Z,9.36
2023-05-05T04:47:39.077Z,9.44
2023-05-05T04:48:39.571Z,9.43
2023-05-05T04:49:39.133Z,9.51
2023-05-05T04:50:39.208Z,9.57
2023-05-05T04:51:39.280Z,9.63
2023-05-05T04:52:39.355Z,9.68
2023-05-05T04:53:39.358Z,9.68
2023-05-05T04:54:39.423Z,9.74
2023-05-05T04:55:39.422Z,9.83
2023-05-05T04:56:39.458Z,9.72
2023-05-05T04:57:39.497Z,9.76
2023-05-05T04:58:39.584Z,9.83
2023-05-05T04:59:39.703Z,9.98
2023-05-05T05:00:39.669Z,10.10
2023-05-05T05:01:39.744Z,10.14
2023-05-05T05:02:39.850Z,10.25
2023-05-05T05:03:39.846Z,10.43
2023-05-05T05:04:39.842Z,10.58
2023-05-05T05:05:39.879Z,10.72
2023-05-05T05:06:39.840Z,10.81
2023-05-05T05:07:39.921Z,10.88
2023-05-05T05:08:39.880Z,10.94
2023-05-05T05:09:39.847Z,11.03
2023-05-05T05:10:39.862Z,11.11
2023-05-05T05:11:39.826Z,11.20
2023-05-05T05:12:39.820Z,11.26
2023-05-05T05:13:39.824Z,11.30
2023-05-05T05:14:39.843Z,11.28
2023-05-05T05:15:39.790Z,11.36
2023-05-05T05:16:39.838Z,11.35
2023-05-05T05:17:39.835Z,11.38
2023-05-05T05:18:39.794Z,11.38
2023-05-05T05:19:39.799Z,11.41
2023-05-05T05:20:39.797Z,11.45
2023-05-05T05:21:39.777Z,11.43
2023-05-05T05:22:39.854Z,11.45
2023-05-05T05:23:40.066Z,11.42
2023-05-05T05:24:39.816Z,11.42
2023-05-05T05:25:39.735Z,11.43
2023-05-05T05:26:39.807Z,11.43
2023-05-05T05:27:39.809Z,11.42
2023-05-05T05:28:39.848Z,11.44
2023-05-05T05:29:40.089Z,11.49
2023-05-05T05:30:40.698Z,11.54
2023-05-05T05:31:39.932Z,11.55
2023-05-05T05:32:40.087Z,11.52
2023-05-05T05:33:39.938Z,11.42
2023-05-05T05:34:39.906Z,11.40
2023-05-05T05:35:40.544Z,11.38
2023-05-05T05:36:39.957Z,11.42
2023-05-05T05:37:40.012Z,11.49
2023-05-05T05:38:40.031Z,11.51
2023-05-05T05:39:41.926Z,11.57
2023-05-05T05:40:39.964Z,11.51
2023-05-05T05:41:40.550Z,11.43
2023-05-05T05:42:39.948Z,11.35
2023-05-05T05:43:39.901Z,11.27
2023-05-05T05:44:39.933Z,11.26
2023-05-05T05:45:39.884Z,11.17
2023-05-05T05:46:40.006Z,11.20
2023-05-05T05:47:39.880Z,11.21
2023-05-05T05:48:39.911Z,11.19
2023-05-05T05:49:39.816Z,11.16
2023-05-05T05:50:39.812Z,11.06
2023-05-05T05:51:39.814Z,11.03
2023-05-05T05:52:39.835Z,11.05
2023-05-05T05:53:39.794Z,11.02
2023-05-05T05:54:39.863Z,11.08
2023-05-05T05:55:39.786Z,11.09
2023-05-05T05:56:39.796Z,11.17
2023-05-05T05:57:39.841Z,11.22
2023-05-05T05:58:41.978Z,11.15
2023-05-05T05:59:39.872Z,11.12
2023-05-05T06:00:39.931Z,11.14
2023-05-05T06:01:40.002Z,11.22
2023-05-05T06:02:40.072Z,11.23
2023-05-05T06:03:40.003Z,11.24
2023-05-05T06:04:39.960Z,11.26
2023-05-05T06:05:39.986Z,11.25
2023-05-05T06:06:39.935Z,11.38
2023-05-05T06:07:39.897Z,11.39
2023-05-05T06:08:39.870Z,11.38
2023-05-05T06:09:39.858Z,11.35
2023-05-05T06:10:39.858Z,11.32
2023-05-05T06:11:39.889Z,11.32
2023-05-05T06:12:39.803Z,11.33
2023-05-05T06:13:39.819Z,11.34
2023-05-05T06:14:39.814Z,11.35
2023-05-05T06:15:39.889Z,11.34
2023-05-05T06:16:39.864Z,11.35
2023-05-05T06:17:39.951Z,11.34
2023-05-05T06:18:40.060Z,11.37
2023-05-05T06:19:39.977Z,11.41
2023-05-05T06:20:40.004Z,11.42
2023-05-05T06:21:40.001Z,11.48
2023-05-05T06:22:39.972Z,11.44
2023-05-05T06:23:40.069Z,11.47
2023-05-05T06:24:39.980Z,11.50
2023-05-05T06:25:39.935Z,11.57
2023-05-05T06:26:40.021Z,11.69
2023-05-05T06:27:39.913Z,11.93
2023-05-05T06:28:39.877Z,12.21
2023-05-05T06:29:39.863Z,12.47
2023-05-05T06:30:39.831Z,12.66
2023-05-05T06:31:39.826Z,12.86
2023-05-05T06:32:39.774Z,13.08
2023-05-05T06:33:39.730Z,13.17
2023-05-05T06:34:39.660Z,13.28
2023-05-05T06:35:40.585Z,13.37
2023-05-05T06:36:39.654Z,13.42
2023-05-05T06:37:40.574Z,13.63
2023-05-05T06:38:39.627Z,13.80
2023-05-05T06:39:39.641Z,14.05
2023-05-05T06:40:40.085Z,14.20
2023-05-05T06:41:39.625Z,14.35
2023-05-05T06:42:39.611Z,14.42
2023-05-05T06:43:39.577Z,14.36
2023-05-05T06:44:39.589Z,14.57
2023-05-05T06:45:39.488Z,14.76
2023-05-05T06:46:40.221Z,14.99
2023-05-05T06:47:40.609Z,15.02
2023-05-05T06:48:39.443Z,14.92
2023-05-05T06:49:39.421Z,14.75
2023-05-05T06:50:39.336Z,14.66
2023-05-05T06:51:41.056Z,14.66
2023-05-05T06:52:39.265Z,14.58
2023-05-05T06:53:39.306Z,14.54
2023-05-05T06:54:39.117Z,14.44
2023-05-05T06:55:39.067Z,14.40
2023-05-05T06:56:39.038Z,14.35
2023-05-05T06:57:38.947Z,14.37
2023-05-05T06:58:38.981Z,14.29
2023-05-05T06:59:38.881Z,14.35
2023-05-05T07:00:38.865Z,14.62
2023-05-05T07:01:38.832Z,14.67
2023-05-05T07:02:38.982Z,14.72
2023-05-05T07:03:38.721Z,14.67
2023-05-05T07:04:38.623Z,14.64
2023-05-05T07:05:38.597Z,14.62
2023-05-05T07:06:38.573Z,14.85
2023-05-05T07:07:38.492Z,14.93
2023-05-05T07:08:38.477Z,14.91
2023-05-05T07:09:38.461Z,14.94
2023-05-05T07:10:38.372Z,15.10
2023-05-05T07:11:38.515Z,15.23
2023-05-05T07:12:38.261Z,15.26
2023-05-05T07:13:38.193Z,15.51
2023-05-05T07:14:38.164Z,15.47
2023-05-05T07:15:38.082Z,15.56
2023-05-05T07:16:38.124Z,15.94
2023-05-05T07:17:37.985Z,16.19
2023-05-05T07:18:38.169Z,16.25
2023-05-05T07:19:37.826Z,16.16
2023-05-05T07:20:37.773Z,16.00
2023-05-05T07:21:37.723Z,15.92
2023-05-05T07:22:37.803Z,15.84
2023-05-05T07:23:37.551Z,15.75
2023-05-05T07:24:37.510Z,15.78
2023-05-05T07:25:37.478Z,15.83
2023-05-05T07:26:38.131Z,15.84
2023-05-05T07:27:37.312Z,15.80
2023-05-05T07:28:37.308Z,15.83
2023-05-05T07:29:37.261Z,15.90
2023-05-05T07:30:37.162Z,15.91
2023-05-05T07:31:37.139Z,16.05
2023-05-05T07:32:37.157Z,16.13
2023-05-05T07:33:37.126Z,16.16
2023-05-05T07:34:37.465Z,16.38
2023-05-05T07:35:37.628Z,16.66
2023-05-05T07:36:36.986Z,16.90
2023-05-05T07:37:36.997Z,17.14
2023-05-05T07:38:37.114Z,17.33
2023-05-05T07:39:37.495Z,17.53
2023-05-05T07:40:36.731Z,17.69
2023-05-05T07:41:36.771Z,17.91
2023-05-05T07:42:36.525Z,17.99
2023-05-05T07:43:36.460Z,17.99
2023-05-05T07:44:36.474Z,18.04
2023-05-05T07:45:36.320Z,18.09
2023-05-05T07:46:37.139Z,18.23
2023-05-05T07:47:36.091Z,18.14
2023-05-05T07:48:38.583Z,18.02
2023-05-05T07:49:36.134Z,18.00
2023-05-05T07:50:36.621Z,17.77
2023-05-05T07:51:35.964Z,18.01
2023-05-05T07:52:44.963Z,18.20
2023-05-05T07:53:36.796Z,18.52
2023-05-05T07:54:35.719Z,18.66
2023-05-05T07:55:35.595Z,18.76
2023-05-05T07:56:35.570Z,18.95
2023-05-05T07:57:36.449Z,19.08
2023-05-05T07:58:35.541Z,19.26
2023-05-05T07:59:35.165Z,19.35
2023-05-05T08:00:35.059Z,19.01
2023-05-05T08:01:34.933Z,19.00
2023-05-05T08:02:34.957Z,19.22
2023-05-05T08:03:34.983Z,19.41
2023-05-05T08:04:35.758Z,19.65
2023-05-05T08:05:34.552Z,19.68
2023-05-05T08:06:34.466Z,19.55
2023-05-05T08:07:34.324Z,19.56
2023-05-05T08:08:34.191Z,19.72
2023-05-05T08:09:34.054Z,19.70
2023-05-05T08:10:33.982Z,19.57
2023-05-05T08:11:33.897Z,19.53
2023-05-05T08:12:33.830Z,19.44
2023-05-05T08:13:34.899Z,19.35
2023-05-05T08:14:34.157Z,19.26
2023-05-05T08:15:33.400Z,19.27
2023-05-05T08:16:33.328Z,19.47
2023-05-05T08:17:33.222Z,19.46
2023-05-05T08:18:33.062Z,19.53
2023-05-05T08:19:32.959Z,19.55
2023-05-05T08:20:32.830Z,19.50
2023-05-05T08:21:33.608Z,19.43
2023-05-05T08:22:33.107Z,19.38
2023-05-05T08:23:32.677Z,19.38
2023-05-05T08:24:32.515Z,19.54
2023-05-05T08:25:32.269Z,19.85
2023-05-05T08:26:32.176Z,20.13
2023-05-05T08:27:32.242Z,20.37
2023-05-05T08:28:32.179Z,20.60
2023-05-05T08:29:32.163Z,20.79
2023-05-05T08:30:32.008Z,20.83
2023-05-05T08:31:31.829Z,20.98
2023-05-05T08:32:31.687Z,21.10
2023-05-05T08:33:31.602Z,21.20
2023-05-05T08:34:31.558Z,21.30
2023-05-05T08:35:31.400Z,21.36
2023-05-05T08:36:31.293Z,21.55
2023-05-05T08:37:31.168Z,21.54
2023-05-05T08:38:31.064Z,21.57
2023-05-05T08:39:31.207Z,21.74
2023-05-05T08:40:30.893Z,21.91
2023-05-05T08:41:30.700Z,22.01
2023-05-05T08:42:37.772Z,22.15
2023-05-05T08:43:31.471Z,22.24
2023-05-05T08:44:30.386Z,22.36
2023-05-05T08:45:30.646Z,22.24
2023-05-05T08:46:30.137Z,22.18
2023-05-05T08:47:30.020Z,22.33
2023-05-05T08:48:29.855Z,22.49
2023-05-05T08:49:30.116Z,22.15
2023-05-05T08:50:29.670Z,22.36
2023-05-05T08:51:29.472Z,22.18
2023-05-05T08:52:29.377Z,21.92
2023-05-05T08:53:29.206Z,21.99
2023-05-05T08:54:29.168Z,22.04
2023-05-05T08:55:28.969Z,21.84
2023-05-05T08:56:28.839Z,21.78
2023-05-05T08:57:28.676Z,21.81
2023-05-05T08:58:29.364Z,21.89
2023-05-05T08:59:28.710Z,21.69
2023-05-05T09:00:28.469Z,21.56
2023-05-05T09:01:29.226Z,21.29
2023-05-05T09:02:28.128Z,20.96
2023-05-05T09:03:27.980Z,21.01
2023-05-05T09:04:27.889Z,20.95
2023-05-05T09:05:27.696Z,20.79
2023-05-05T09:06:27.613Z,20.62
2023-05-05T09:07:27.453Z,20.63
2023-05-05T09:08:27.323Z,20.80
2023-05-05T09:09:27.319Z,20.93
2023-05-05T09:10:27.787Z,20.97
2023-05-05T09:11:26.978Z,21.30
2023-05-05T09:12:27.016Z,21.45
2023-05-05T09:13:27.644Z,21.49
2023-05-05T09:14:26.746Z,21.36
2023-05-05T09:15:26.772Z,21.02
2023-05-05T09:16:26.441Z,20.83
2023-05-05T09:17:26.383Z,20.58
2023-05-05T09:18:26.166Z,20.54
2023-05-05T09:19:26.046Z,20.66
2023-05-05T09:20:25.935Z,20.67
2023-05-05T09:21:25.853Z,20.61
2023-05-05T09:22:25.725Z,20.67
2023-05-05T09:23:25.702Z,20.66
2023-05-05T09:24:25.682Z,20.42
2023-05-05T09:25:25.403Z,20.52
2023-05-05T09:26:25.244Z,20.77
2023-05-05T09:27:25.138Z,21.03
2023-05-05T09:28:25.061Z,21.18
2023-05-05T09:29:25.374Z,21.17
2023-05-05T09:30:24.875Z,21.31
2023-05-05T09:31:24.828Z,21.50
2023-05-05T09:32:24.822Z,21.65
2023-05-05T09:33:24.661Z,21.79
2023-05-05T09:34:24.528Z,21.84
2023-05-05T09:35:24.566Z,21.76
2023-05-05T09:36:24.448Z,21.75
2023-05-05T09:37:24.333Z,21.65
2023-05-05T09:38:26.355Z,21.60
2023-05-05T09:39:24.364Z,21.86
2023-05-05T09:40:24.041Z,21.56
2023-05-05T09:41:23.858Z,21.50
2023-05-05T09:42:23.923Z,21.59
2023-05-05T09:43:24.134Z,21.68
2023-05-05T09:44:23.584Z,21.73
2023-05-05T09:45:24.159Z,21.75
2023-05-05T09:46:23.616Z,21.70
2023-05-05T09:47:29.593Z,21.58
2023-05-05T09:48:24.463Z,21.70
2023-05-05T09:49:23.329Z,21.95
2023-05-05T09:50:23.093Z,22.22
2023-05-05T09:51:22.998Z,21.88
2023-05-05T09:52:22.910Z,21.90
2023-05-05T09:53:22.749Z,21.80
2023-05-05T09:54:22.655Z,21.62
2023-05-05T09:55:23.128Z,21.58
2023-05-05T09:56:22.395Z,21.94
2023-05-05T09:57:25.177Z,22.05
2023-05-05T09:58:22.287Z,22.03
2023-05-05T09:59:22.190Z,22.14
2023-05-05T10:00:21.976Z,22.08
2023-05-05T10:01:21.846Z,21.77
2023-05-05T10:02:21.682Z,21.96
2023-05-05T10:03:22.160Z,22.17
2023-05-05T10:04:21.498Z,22.24
2023-05-05T10:05:21.460Z,22.19
2023-05-05T10:06:21.228Z,22.07
2023-05-05T10:07:21.114Z,21.98
2023-05-05T10:08:21.085Z,22.25
2023-05-05T10:09:22.048Z,22.53
2023-05-05T10:10:20.738Z,22.70
2023-05-05T10:11:20.604Z,22.62
2023-05-05T10:12:20.497Z,22.69
2023-05-05T10:13:20.472Z,22.44
2023-05-05T10:14:20.227Z,22.08
2023-05-05T10:15:20.433Z,22.05
2023-05-05T10:16:20.249Z,21.89
2023-05-05T10:17:20.738Z,21.92
2023-05-05T10:18:19.785Z,21.85
2023-05-05T10:19:20.176Z,22.10
2023-05-05T10:20:19.493Z,22.50
2023-05-05T10:21:20.236Z,22.76
2023-05-05T10:22:19.449Z,22.95
2023-05-05T10:23:19.043Z,23.17
2023-05-05T10:24:19.108Z,23.37
2023-05-05T10:25:18.799Z,23.49
2023-05-05T10:26:18.624Z,23.63
2023-05-05T10:27:18.665Z,23.82
2023-05-05T10:28:18.370Z,23.61
2023-05-05T10:29:18.242Z,23.61
2023-05-05T10:30:18.133Z,23.48
2023-05-05T10:31:25.748Z,23.23
2023-05-05T10:32:47.037Z,23.34
2023-05-05T10:33:30.373Z,23.34
2023-05-05T10:34:18.595Z,23.47
2023-05-05T10:35:17.436Z,23.62
2023-05-05T10:36:17.255Z,23.78
2023-05-05T10:37:17.716Z,24.07
2023-05-05T10:38:16.955Z,24.25
2023-05-05T10:39:17.764Z,24.41
2023-05-05T10:40:17.218Z,24.44
2023-05-05T10:41:16.526Z,24.41
2023-05-05T10:42:19.153Z,24.56
2023-05-05T10:43:16.289Z,24.67
2023-05-05T10:44:16.194Z,24.75
2023-05-05T10:45:16.294Z,24.86
2023-05-05T10:46:16.956Z,24.94
2023-05-05T10:47:16.165Z,25.01
2023-05-05T10:48:15.610Z,25.10
2023-05-05T10:49:16.458Z,25.01
2023-05-05T10:50:15.340Z,25.17
2023-05-05T10:51:21.145Z,24.96
2023-05-05T10:52:15.832Z,24.77
2023-05-05T10:53:14.733Z,24.40
2023-05-05T10:54:14.618Z,23.98
2023-05-05T10:55:14.389Z,23.81
2023-05-05T10:56:15.178Z,23.83
2023-05-05T10:57:14.113Z,23.65
2023-05-05T10:58:13.933Z,23.97
2023-05-05T10:59:14.661Z,24.12
2023-05-05T11:00:15.104Z,24.35
2023-05-05T11:01:13.589Z,24.42
2023-05-05T11:02:14.156Z,24.14
2023-05-05T11:03:13.366Z,24.15
2023-05-05T11:04:13.155Z,24.41
2023-05-05T11:05:12.981Z,24.59
2023-05-05T11:06:12.834Z,24.86
2023-05-05T11:07:15.000Z,25.10
2023-05-05T11:08:12.837Z,25.15
2023-05-05T11:09:12.566Z,25.12
2023-05-05T11:10:12.332Z,25.29
2023-05-05T11:11:12.141Z,25.40
2023-05-05T11:12:11.997Z,25.44
2023-05-05T11:13:11.872Z,25.58
2023-05-05T11:14:12.164Z,25.79
2023-05-05T11:15:11.530Z,25.96
2023-05-05T11:16:11.408Z,26.10
2023-05-05T11:17:11.249Z,26.05
2023-05-05T11:18:11.143Z,26.23
2023-05-05T11:19:11.706Z,26.45
2023-05-05T11:20:10.939Z,26.53
2023-05-05T11:21:10.683Z,26.49
2023-05-05T11:22:10.502Z,26.43
2023-05-05T11:23:10.370Z,26.40
2023-05-05T11:24:10.193Z,26.35
2023-05-05T11:25:10.060Z,26.39
2023-05-05T11:26:09.891Z,26.50
2023-05-05T11:27:09.714Z,26.61
2023-05-05T11:28:09.561Z,26.70
2023-05-05T11:29:09.448Z,26.73
2023-05-05T11:30:10.726Z,26.78
2023-05-05T11:31:09.105Z,26.75
2023-05-05T11:32:09.037Z,26.84
2023-05-05T11:33:08.795Z,26.93
2023-05-05T11:34:08.604Z,26.95
2023-05-05T11:35:08.714Z,26.89
2023-05-05T11:36:08.297Z,27.05
2023-05-05T11:37:08.157Z,27.28
2023-05-05T11:38:08.010Z,27.40
2023-05-05T11:39:07.868Z,27.50
2023-05-05T11:40:07.905Z,27.53
2023-05-05T11:41:07.613Z,27.56
2023-05-05T11:42:10.737Z,27.63
2023-05-05T11:43:07.249Z,27.51
2023-05-05T11:44:07.027Z,27.47
2023-05-05T11:45:06.855Z,27.53
2023-05-05T11:46:06.694Z,27.42
2023-05-05T11:47:06.526Z,27.29
2023-05-05T11:48:07.000Z,27.19
2023-05-05T11:49:06.176Z,27.22
2023-05-05T11:50:06.167Z,27.23
2023-05-05T11:51:05.819Z,27.30
2023-05-05T11:52:05.627Z,27.28
2023-05-05T11:53:05.455Z,27.06
2023-05-05T11:54:05.326Z,26.97
2023-05-05T11:55:05.193Z,26.86
2023-05-05T11:56:05.045Z,26.74
2023-05-05T11:57:05.069Z,26.62
2023-05-05T11:58:04.788Z,26.59
2023-05-05T11:59:04.709Z,26.79
2023-05-05T12:00:04.586Z,26.97
2023-05-05T12:01:04.481Z,27.01
2023-05-05T12:02:04.370Z,27.06
2023-05-05T12:03:04.354Z,26.79
2023-05-05T12:04:04.253Z,26.81
2023-05-05T12:05:04.052Z,26.79
2023-05-05T12:06:03.876Z,26.91
2023-05-05T12:07:03.710Z,26.96
2023-05-05T12:08:03.571Z,26.94
2023-05-05T12:09:03.516Z,26.98
2023-05-05T12:10:03.372Z,27.16
2023-05-05T12:11:03.259Z,27.36
2023-05-05T12:12:03.077Z,27.48
2023-05-05T12:13:02.982Z,27.66
2023-05-05T12:14:02.796Z,27.80
2023-05-05T12:15:02.664Z,27.69
2023-05-05T12:16:02.541Z,27.61
2023-05-05T12:17:02.348Z,27.66
2023-05-05T12:18:03.328Z,27.72
2023-05-05T12:19:02.166Z,27.70
2023-05-05T12:20:01.985Z,27.58
2023-05-05T12:21:01.991Z,27.50
2023-05-05T12:22:01.649Z,27.62
2023-05-05T12:23:01.521Z,27.65
2023-05-05T12:24:01.307Z,27.79
2023-05-05T12:25:01.144Z,27.82
2023-05-05T12:26:01.047Z,27.82
2023-05-05T12:27:00.778Z,27.91
2023-05-05T12:28:00.602Z,27.89
2023-05-05T12:29:00.522Z,27.69
2023-05-05T12:30:00.229Z,27.67
2023-05-05T12:31:00.227Z,27.62
2023-05-05T12:31:59.910Z,27.49
2023-05-05T12:32:59.788Z,27.30
2023-05-05T12:33:59.535Z,27.02
2023-05-05T12:34:59.380Z,26.89
2023-05-05T12:36:01.248Z,27.01
2023-05-05T12:36:59.203Z,26.88
2023-05-05T12:37:59.077Z,26.86
2023-05-05T12:38:58.938Z,26.71
2023-05-05T12:39:58.840Z,26.63
2023-05-05T12:40:59.789Z,26.68
2023-05-05T12:41:58.640Z,26.63
2023-05-05T12:42:58.537Z,26.74
2023-05-05T12:43:59.185Z,26.85
2023-05-05T12:44:59.804Z,26.90
2023-05-05T12:45:58.235Z,27.16
2023-05-05T12:46:58.073Z,27.40
2023-05-05T12:47:57.974Z,27.55
2023-05-05T12:48:57.818Z,27.68
2023-05-05T12:49:57.699Z,27.70
2023-05-05T12:50:57.684Z,27.81
2023-05-05T12:51:57.422Z,27.88
2023-05-05T12:52:57.298Z,28.13
2023-05-05T12:53:57.242Z,28.17
2023-05-05T12:54:57.792Z,28.26
2023-05-05T12:55:57.794Z,28.35
2023-05-05T12:56:59.748Z,28.38
2023-05-05T12:57:56.582Z,28.36
2023-05-05T12:58:56.409Z,28.49
2023-05-05T12:59:56.722Z,28.56
2023-05-05T13:00:56.265Z,28.61
2023-05-05T13:01:56.867Z,28.37